ドーハ の空港の天気 - METARとTAF

ドーハ国際空港 ( OTBD / DOH ) - カタール ドーハ
飛行場実況気象(Metar)
観測時間12/10 08:00 AST (12/10 05:00 UTC)
風向・風速北 2m/s
視程10km以上
天気現象
なし
気温24℃
湿度61%
気圧1017hPa
METAROTBD 100500Z 35004KT CAVOK 24/16 Q1017 NOSIG
過去の天気等 Google飛行場航空写真 Wunderground天気予報

過去48時間のMETAR

飛行場予報(TAF)
発表時間: 12/10 08:02 AST (12/10 05:02 UTC)
予報対象時間: 10日9時 AST ~ 11日15時 AST
風向・風速北北西 3m/s
視程10km以上
なし
10日10時 AST ~ 10日12時 AST に徐々に
風向・風速北北東 5m/s
10日19時 AST ~ 10日21時 AST に徐々に
風向・風速北北西 6m/s
視程10km以上
少しの雲 雲底高度 910m
全天の4割程度の雲 雲底高度 3660m
TAF OTBD 100502Z 1006/1112 33006KT CAVOK
BECMG 1007/1009 03010KT
BECMG 1016/1018 33012KT 9999 FEW030 SCT120